Clarkstown, New York
Current Conditions -  °F | °C
As of 10:56 AM on Thursday 23 Oct 2014 (Local Time) from KHPN Reporting Station
Light Rain Light Rain  
Wind Chill: 42°   Ceiling: 1400
Heat Index: 48°   Visibility: 9mi
Dew Point: 44°   Wind: 15mph
Humidity: 86%   Direction: 340°NNW
Pressure: 29.69"   Gusts: 24mph
Location:  41.156°N, 73.9936°W
Report Text: KHPN 231456Z 34013G21KT 9SM -RA BKN014 OVC029 09/07 A2969 RMK AO2 PK WND 35027/1408 RAB19 SLP057 P0000 60003 T00890067 53004
Loading
Personal Weather Stations






























Interactive Weather Map
Tropical Storm Tracking
New forecast layout! Learn more

10-Day Weather Forecast

Advertisements
Track Severe Weather on mobile